Other Surface Observations
Issued by NWS

Home | Current Version | Previous Version | Text Only | Print | Product List | Glossary On
Versions: 1 2 3 4 5 6 7 8 9 10 11 12 13 14 15 16 17 18 19 20 21 22 23 24 25 26 27 28 29 30 31 32 33 34 35 36 37 38 39 40 41 42 43 44 45 46 47 48 49 50
000
SXUS52 KWBC 191659
OSOGX
:SHEF ENCODED 6-MINUTE NOS MET DATA
:NATIONAL WATER LEVEL OBSERVATION NETWORK (NWLON)
:TA(AIR TEMP DEG F)  SLP(SEA LEVEL PRESSURE INCHES)
:UD(WIND DIRECTION WHOLE DEGREES) US (WIND SPEED MPH)
:TW(WATER TEMP DEG F) UG(WIND GUSTS MPH) WC(CONDUCTIVITY uMHOS/CM)
:-9999 (MISSING VALUES)
:PROVIDED BY DOC/NOAA/NOS/CO-OPS, (301) 713-2540
:corms@noaa.gov
.A NPSF1 20190819 Z DH1642/TAIRG    90/UGIRG -9999/PLIRG 30.07/UDIRG -9999/USIRG -9999/TWIRG    87/WCIRG -9999
.A FMRF1 20190819 Z DH1642/TAIRG    86/UGIRG     9/PLIRG 30.07/UDIRG    29/USIRG     5/TWIRG    85/WCIRG -9999
.E PMAF1 20190819 Z DH1642/TAIRP/DIN06/   83/   83
.E PMAF1 20190819 Z DH1642/PLIRP/DIN06/30.09/30.10
.E PMAF1 20190819 Z DH1642/TWIRP/DIN06/   85/   85
.E PMAF1 20190819 Z DH1636/TAIRG/DIN06/   83/   83
.E PMAF1 20190819 Z DH1636/PLIRG/DIN06/30.09/30.09
.E PMAF1 20190819 Z DH1636/TWIRG/DIN06/   85/   85
.A MTBF1 20190819 Z DH1642/TAIRG    82/UGIRG    10/PLIRG 30.11/UDIRG    18/USIRG     9/TWIRG -9999/WCIRG -9999
.E SAPF1 20190819 Z DH1642/TAIRP/DIN06/   85/   85
.E SAPF1 20190819 Z DH1642/PLIRP/DIN06/30.11/30.11
.E SAPF1 20190819 Z DH1642/USIRP/DIN06/    4/    5
.E SAPF1 20190819 Z DH1642/UDIRP/DIN06/   61/   48
.E SAPF1 20190819 Z DH1642/UGIRP/DIN06/    6/    6
.E SAPF1 20190819 Z DH1642/TWIRP/DIN06/   83/   83
.E SAPF1 20190819 Z DH1636/TAIRG/DIN06/   85/   85
.E SAPF1 20190819 Z DH1636/PLIRG/DIN06/30.11/30.11
.E SAPF1 20190819 Z DH1636/USIRG/DIN06/    4/    4
.E SAPF1 20190819 Z DH1636/UDIRG/DIN06/   56/   53
.E SAPF1 20190819 Z DH1636/UGIRG/DIN06/    6/    6
.E SAPF1 20190819 Z DH1636/TWIRG/DIN06/   83/   83
.A GCTF1 20190819 Z DH1642/TAIRG    85/UGIRG -9999/PLIRG 30.11/UDIRG -9999/USIRG -9999/TWIRG -9999/WCIRG -9999
.E OPTF1 20190819 Z DH1630/TAIRG/DIN06/   86/   85/   87
.E OPTF1 20190819 Z DH1630/PLIRG/DIN06/30.11/30.11/30.11
.E OPTF1 20190819 Z DH1630/USIRG/DIN06/    1/    2/    3
.E OPTF1 20190819 Z DH1630/UDIRG/DIN06/  349/  274/   97
.E OPTF1 20190819 Z DH1630/UGIRG/DIN06/    5/    8/    6
.E OPTF1 20190819 Z DH1630/TWIRG/DIN06/   83/   83/   83
.E MCYF1 20190819 Z DH1642/TWIRP/DIN06/   84/   84
.A MCYF1 20190819 Z DH1642/TAIRG -9999/UGIRG -9999/PLIRG -9999/UDIRG -9999/USIRG -9999/TWIRG    84/WCIRG -9999
.A TSHF1 20190819 Z DH1642/TAIRP -9999/UGIRP     8/PLIRP -9999/UDIRP    25/USIRP     5/TWIRP -9999/WCIRG -9999
.A TPAF1 20190819 Z DH1648/TAIRP -9999/UGIRP     9/PLIRP -9999/UDIRP    54/USIRP     5/TWIRP -9999/WCIRG -9999
.E CWBF1 20190819 Z DH1636/TAIRG/DIN06/   85/   85
.E CWBF1 20190819 Z DH1636/PLIRG/DIN06/30.11/30.11
.E CWBF1 20190819 Z DH1636/USIRG/DIN06/    5/    3
.E CWBF1 20190819 Z DH1636/UDIRG/DIN06/   75/   19
.E CWBF1 20190819 Z DH1636/UGIRG/DIN06/    7/    6
.E CWBF1 20190819 Z DH1636/TWIRG/DIN06/   85/   85
.E CKYF1 20190819 Z DH1642/TAIRG/DIN06/   81/   81
.E CKYF1 20190819 Z DH1642/PLIRG/DIN06/30.09/30.10
.E CKYF1 20190819 Z DH1642/USIRG/DIN06/   10/    7
.E CKYF1 20190819 Z DH1642/UDIRG/DIN06/  159/  149
.E CKYF1 20190819 Z DH1642/UGIRG/DIN06/   11/    9
.E CKYF1 20190819 Z DH1642/TWIRG/DIN06/   81/   81
.E APCF1 20190819 Z DH1630/TAIRG/DIN06/   73/   74/   74
.E APCF1 20190819 Z DH1630/PLIRG/DIN06/30.12/30.12/30.12
.E APCF1 20190819 Z DH1630/USIRG/DIN06/    9/    9/    7
.E APCF1 20190819 Z DH1630/UDIRG/DIN06/  264/  259/  253
.E APCF1 20190819 Z DH1630/UGIRG/DIN06/   15/   13/   11
.E APCF1 20190819 Z DH1630/TWIRG/DIN06/   84/   84/   84
.A PACF1 20190819 Z DH1642/TAIRG -9999/UGIRG    12/PLIRG -9999/UDIRG   151/USIRG     9/TWIRG    84/WCIRG -9999
.E PCBF1 20190819 Z DH1636/TAIRG/DIN06/   79/   80
.E PCBF1 20190819 Z DH1636/PLIRG/DIN06/30.10/30.10
.E PCBF1 20190819 Z DH1636/USIRG/DIN06/   18/   18
.E PCBF1 20190819 Z DH1636/UDIRG/DIN06/  163/  163
.E PCBF1 20190819 Z DH1636/UGIRG/DIN06/   21/   21
.E PCBF1 20190819 Z DH1636/TWIRG/DIN06/   86/   86
.E PCLF1 20190819 Z DH1642/TAIRP/DIN06/   85/   86
.E PCLF1 20190819 Z DH1642/PLIRP/DIN06/30.06/30.07
.E PCLF1 20190819 Z DH1642/USIRP/DIN06/   10/   16
.E PCLF1 20190819 Z DH1642/UDIRP/DIN06/  178/  176
.E PCLF1 20190819 Z DH1642/UGIRP/DIN06/   14/   20
.E PCLF1 20190819 Z DH1642/TWIRP/DIN06/   88/   88
.A PCLF1 20190819 Z DH1642/TAIRG    85/UGIRG    13/PLIRG 30.06/UDIRG   179/USIRG    10/TWIRG    88/WCIRG -9999
.E WBYA1 20190819 Z DH1642/TWIRP/DIN06/   87/   87
.E WBYA1 20190819 Z DH1642/TWIRG/DIN06/   87/   87
.E FMOA1 20190819 Z DH1648/TAIRP/DIN06/   80/   79
.E FMOA1 20190819 Z DH1648/PLIRP/DIN06/30.06/30.06
.E FMOA1 20190819 Z DH1648/USIRP/DIN06/   13/   14
.E FMOA1 20190819 Z DH1648/UDIRP/DIN06/  189/  188
.E FMOA1 20190819 Z DH1648/UGIRP/DIN06/   17/   15
.E FMOA1 20190819 Z DH1636/TAIRG/DIN06/   80/   80
.E FMOA1 20190819 Z DH1636/PLIRG/DIN06/30.06/30.06
.E FMOA1 20190819 Z DH1636/USIRG/DIN06/    7/   11
.E FMOA1 20190819 Z DH1636/UDIRG/DIN06/  164/  188
.E FMOA1 20190819 Z DH1636/UGIRG/DIN06/    9/   12
.E DILA1 20190819 Z DH1636/TAIRG/DIN06/   80/   79
.E DILA1 20190819 Z DH1636/PLIRG/DIN06/30.06/30.06
.E DILA1 20190819 Z DH1636/USIRG/DIN06/   11/   12
.E DILA1 20190819 Z DH1636/UDIRG/DIN06/  208/  218
.E DILA1 20190819 Z DH1636/UGIRG/DIN06/   15/   16
.E DILA1 20190819 Z DH1636/TWIRG/DIN06/   86/   86
.E MBPA1 20190819 Z DH1642/TAIRP/DIN06/   86/   84
.E MBPA1 20190819 Z DH1642/TAIRG/DIN06/   86/   85
.A MCGA1 20190819 Z DH1642/TAIRG    88/UGIRG    13/PLIRG 30.05/UDIRG    65/USIRG    11/TWIRG    87/WCIRG -9999
.E PTOA1 20190819 Z DH1642/TAIRP/DIN06/   88/   88
.A PTOA1 20190819 Z DH1648/TAIRG    88/UGIRG -9999/PLIRG -9999/UDIRG -9999/USIRG -9999/TWIRG -9999/WCIRG -9999
.E OBLA1 20190819 Z DH1636/TAIRG/DIN06/   92/   92
.E OBLA1 20190819 Z DH1636/PLIRG/DIN06/30.04/30.04
.E OBLA1 20190819 Z DH1636/WCIRG/DIN06/16690/16510
.E OBLA1 20190819 Z DH1636/TWIRG/DIN06/   87/   87
.E PTBM6 20190819 Z DH1636/TAIRG/DIN06/   77/   77
.E PTBM6 20190819 Z DH1636/PLIRG/DIN06/30.06/30.05
.E PTBM6 20190819 Z DH1636/USIRG/DIN06/   22/   22
.E PTBM6 20190819 Z DH1636/UDIRG/DIN06/  185/  186
.E PTBM6 20190819 Z DH1636/UGIRG/DIN06/   27/   25
.E PNLM6 20190819 Z DH1636/TWIRG/DIN06/   82/   82
.E WYCM6 20190819 Z DH1636/TAIRG/DIN06/   86/   86
.E WYCM6 20190819 Z DH1636/PLIRG/DIN06/30.04/30.04
.E WYCM6 20190819 Z DH1636/USIRG/DIN06/    8/    4
.E WYCM6 20190819 Z DH1636/UDIRG/DIN06/  350/  357
.E WYCM6 20190819 Z DH1636/UGIRG/DIN06/    9/    7
.E WYCM6 20190819 Z DH1636/TWIRG/DIN06/   86/   86
.A PILL1 20190819 Z DH1642/TAIRG    76/UGIRG    19/PLIRG 30.08/UDIRG   195/USIRG    16/TWIRG    86/WCIRG -9999
.E PSTL1 20190819 Z DH1636/TAIRG/DIN06/   78/   78
.E PSTL1 20190819 Z DH1636/PLIRG/DIN06/30.13/30.13
.E PSTL1 20190819 Z DH1636/TWIRG/DIN06/   85/   85
.E SHBL1 20190819 Z DH1630/TAIRG/DIN06/   75/   76/   76
.E SHBL1 20190819 Z DH1630/PLIRG/DIN06/30.08/30.08/30.07
.E SHBL1 20190819 Z DH1630/USIRG/DIN06/    9/    9/   13
.E SHBL1 20190819 Z DH1630/UDIRG/DIN06/  226/  230/  233
.E SHBL1 20190819 Z DH1630/UGIRG/DIN06/   12/   14/   21
.E SHBL1 20190819 Z DH1630/TWIRG/DIN06/   88/   88/   88
.E GISL1 20190819 Z DH1642/USIRG/DIN06/    6/    3
.E GISL1 20190819 Z DH1642/UDIRG/DIN06/  180/  154
.E GISL1 20190819 Z DH1642/UGIRG/DIN06/    9/    4
.E GISL1 20190819 Z DH1642/TWIRG/DIN06/   85/   85
.E NWCL1 20190819 Z DH1636/TAIRG/DIN06/   85/   85
.E NWCL1 20190819 Z DH1636/PLIRG/DIN06/30.03/30.03
.E NWCL1 20190819 Z DH1636/USIRG/DIN06/    2/    1
.E NWCL1 20190819 Z DH1636/UDIRG/DIN06/  343/  270
.E NWCL1 20190819 Z DH1636/UGIRG/DIN06/    4/    3
.E NWCL1 20190819 Z DH1636/TWIRG/DIN06/   88/   88
.E CARL1 20190819 Z DH1642/TWIRP/DIN06/   87/   87
.E CARL1 20190819 Z DH1642/TWIRG/DIN06/   87/   87
.E BYGL1 20190819 Z DH1636/TAIRG/DIN06/   78/   78
.E BYGL1 20190819 Z DH1636/PLIRG/DIN06/30.05/30.06
.E BYGL1 20190819 Z DH1636/USIRG/DIN06/    6/    6
.E BYGL1 20190819 Z DH1636/UDIRG/DIN06/  236/  241
.E BYGL1 20190819 Z DH1636/UGIRG/DIN06/   14/   15
.E BYGL1 20190819 Z DH1636/TWIRG/DIN06/   86/   86
.E FREL1 20190819 Z DH1642/TAIRP/DIN06/   88/   88
.E FREL1 20190819 Z DH1642/PLIRP/DIN06/30.00/30.00
.E FREL1 20190819 Z DH1642/USIRP/DIN06/    9/    9
.E FREL1 20190819 Z DH1642/UDIRP/DIN06/   28/   28
.E FREL1 20190819 Z DH1642/UGIRP/DIN06/   11/   11
.E TESL1 20190819 Z DH1636/TAIRG/DIN06/   84/   84
.E TESL1 20190819 Z DH1636/PLIRG/DIN06/30.04/30.04
.E TESL1 20190819 Z DH1636/USIRG/DIN06/    6/   10
.E TESL1 20190819 Z DH1636/UDIRG/DIN06/  283/  220
.E TESL1 20190819 Z DH1636/UGIRG/DIN06/   10/   13
.E TESL1 20190819 Z DH1636/TWIRG/DIN06/   86/   86
.E AMRL1 20190819 Z DH1630/TAIRG/DIN06/   88/   86/   86
.E AMRL1 20190819 Z DH1630/PLIRG/DIN06/30.05/30.05/30.05
.E AMRL1 20190819 Z DH1630/USIRG/DIN06/    4/    7/    5
.E AMRL1 20190819 Z DH1630/UDIRG/DIN06/  194/  198/  190
.E AMRL1 20190819 Z DH1630/UGIRG/DIN06/   13/   11/   11
.E AMRL1 20190819 Z DH1630/TWIRG/DIN06/   85/   85/   85
.E EINL1 20190819 Z DH1642/TAIRP/DIN06/   84/   84
.E EINL1 20190819 Z DH1642/PLIRP/DIN06/30.05/30.04
.E EINL1 20190819 Z DH1642/USIRP/DIN06/   12/   14
.E EINL1 20190819 Z DH1642/UDIRP/DIN06/  241/  246
.E EINL1 20190819 Z DH1642/UGIRP/DIN06/   15/   15
.E EINL1 20190819 Z DH1642/TWIRP/DIN06/   86/   86
.E EINL1 20190819 Z DH1636/TAIRG/DIN06/   84/   84
.E EINL1 20190819 Z DH1636/PLIRG/DIN06/30.05/30.05
.E EINL1 20190819 Z DH1636/USIRG/DIN06/   13/   12
.E EINL1 20190819 Z DH1636/UDIRG/DIN06/  234/  239
.E EINL1 20190819 Z DH1636/UGIRG/DIN06/   15/   16
.E EINL1 20190819 Z DH1636/WCIRG/DIN06/  420/  420
.E EINL1 20190819 Z DH1636/TWIRG/DIN06/   86/   86
.E FRWL1 20190819 Z DH1636/TAIRG/DIN06/   84/   84
.E FRWL1 20190819 Z DH1636/PLIRG/DIN06/30.03/30.03
.E FRWL1 20190819 Z DH1636/USIRG/DIN06/   17/   17
.E FRWL1 20190819 Z DH1636/UDIRG/DIN06/  173/  170
.E FRWL1 20190819 Z DH1636/UGIRG/DIN06/   19/   19
.E FRWL1 20190819 Z DH1636/TWIRG/DIN06/   88/   88
.E BKTL1 20190819 Z DH1636/TWIRG/DIN06/   89/   89
.E CAPL1 20190819 Z DH1642/TAIRP/DIN06/   86/   87
.E CAPL1 20190819 Z DH1642/PLIRP/DIN06/30.01/30.01
.E CAPL1 20190819 Z DH1642/USIRP/DIN06/   11/   11
.E CAPL1 20190819 Z DH1642/UDIRP/DIN06/  215/  214
.E CAPL1 20190819 Z DH1642/UGIRP/DIN06/   13/   12
.E CAPL1 20190819 Z DH1642/TWIRP/DIN06/   88/   88
.E CAPL1 20190819 Z DH1636/TAIRG/DIN06/   86/   86
.E CAPL1 20190819 Z DH1636/PLIRG/DIN06/30.01/30.01
.E CAPL1 20190819 Z DH1636/USIRG/DIN06/   15/   13
.E CAPL1 20190819 Z DH1636/UDIRG/DIN06/  225/  222
.E CAPL1 20190819 Z DH1636/UGIRG/DIN06/   17/   16
.E CAPL1 20190819 Z DH1636/TWIRG/DIN06/   88/   88
.E PORT2 20190819 Z DH1636/TAIRG/DIN06/   89/   89
.E PORT2 20190819 Z DH1636/PLIRG/DIN06/30.03/30.02
.E PORT2 20190819 Z DH1636/USIRG/DIN06/    9/   11
.E PORT2 20190819 Z DH1636/UDIRG/DIN06/  183/  181
.E PORT2 20190819 Z DH1636/UGIRG/DIN06/   12/   16
.E PORT2 20190819 Z DH1636/TWIRG/DIN06/   88/   88
.E SBPT2 20190819 Z DH1636/TAIRG/DIN06/   88/   89
.E SBPT2 20190819 Z DH1636/PLIRG/DIN06/30.07/30.07
.E SBPT2 20190819 Z DH1636/USIRG/DIN06/   11/   12
.E SBPT2 20190819 Z DH1636/UDIRG/DIN06/  201/  198
.E SBPT2 20190819 Z DH1636/UGIRG/DIN06/   21/   19
.E SBPT2 20190819 Z DH1636/TWIRG/DIN06/   89/   89
.E MGPT2 20190819 Z DH1636/TAIRG/DIN06/   90/   90
.E MGPT2 20190819 Z DH1636/PLIRG/DIN06/30.01/30.01
.E MGPT2 20190819 Z DH1636/USIRG/DIN06/    9/    7
.E MGPT2 20190819 Z DH1636/UDIRG/DIN06/  166/  156
.E MGPT2 20190819 Z DH1636/UGIRG/DIN06/   13/   11
.E MGPT2 20190819 Z DH1636/WCIRG/DIN06/20850/20840
.E MGPT2 20190819 Z DH1636/TWIRG/DIN06/   89/   89
.E NCHT2 20190819 Z DH1636/TAIRG/DIN06/   85/   86
.E NCHT2 20190819 Z DH1636/PLIRG/DIN06/30.00/30.00
.E NCHT2 20190819 Z DH1636/USIRG/DIN06/    6/    5
.E NCHT2 20190819 Z DH1636/UDIRG/DIN06/  202/  201
.E NCHT2 20190819 Z DH1636/UGIRG/DIN06/   10/    9
.E NCHT2 20190819 Z DH1636/TWIRG/DIN06/   88/   88
.E HIST2 20190819 Z DH1636/TAIRG/DIN06/   89/   90
.E HIST2 20190819 Z DH1636/PLIRG/DIN06/30.01/30.01
.E HIST2 20190819 Z DH1636/USIRG/DIN06/   12/   10
.E HIST2 20190819 Z DH1636/UDIRG/DIN06/  209/  215
.E HIST2 20190819 Z DH1636/UGIRG/DIN06/   17/   18
.E HIST2 20190819 Z DH1636/TWIRG/DIN06/   89/   89
.E TXPT2 20190819 Z DH1642/TAIRG/DIN06/   88/   88
.E TXPT2 20190819 Z DH1642/PLIRG/DIN06/29.98/29.98
.E TXPT2 20190819 Z DH1642/USIRG/DIN06/   15/   14
.E TXPT2 20190819 Z DH1642/UDIRG/DIN06/  215/  208
.E TXPT2 20190819 Z DH1642/UGIRG/DIN06/   20/   19
.E TXPT2 20190819 Z DH1642/TWIRG/DIN06/   88/   88
.E RLOT2 20190819 Z DH1642/TAIRP/DIN06/   89/   89
.E RLOT2 20190819 Z DH1642/PLIRP/DIN06/30.02/30.02
.E RLOT2 20190819 Z DH1642/USIRP/DIN06/    8/    7
.E RLOT2 20190819 Z DH1642/UDIRP/DIN06/  215/  212
.E RLOT2 20190819 Z DH1642/UGIRP/DIN06/   14/   14
.E RLOT2 20190819 Z DH1642/TWIRP/DIN06/   88/   89
.E RLOT2 20190819 Z DH1636/TAIRG/DIN06/   89/   89
.E RLOT2 20190819 Z DH1636/PLIRG/DIN06/30.02/30.02
.E RLOT2 20190819 Z DH1636/USIRG/DIN06/    9/    8
.E RLOT2 20190819 Z DH1636/UDIRG/DIN06/  211/  207
.E RLOT2 20190819 Z DH1636/UGIRG/DIN06/   15/   14
.E RLOT2 20190819 Z DH1636/TWIRG/DIN06/   88/   88
.E EPTT2 20190819 Z DH1636/TAIRG/DIN06/   88/   88
.E EPTT2 20190819 Z DH1636/PLIRG/DIN06/29.99/29.99
.E EPTT2 20190819 Z DH1636/USIRG/DIN06/   14/   13
.E EPTT2 20190819 Z DH1636/UDIRG/DIN06/  196/  203
.E EPTT2 20190819 Z DH1636/UGIRG/DIN06/   16/   17
.E EPTT2 20190819 Z DH1636/WCIRG/DIN06/21050/20290
.E EPTT2 20190819 Z DH1636/TWIRG/DIN06/   87/   87
.E GNJT2 20190819 Z DH1636/TAIRG/DIN06/   87/   87
.E GNJT2 20190819 Z DH1636/PLIRG/DIN06/29.99/29.98
.E GNJT2 20190819 Z DH1636/USIRG/DIN06/   14/   15
.E GNJT2 20190819 Z DH1636/UDIRG/DIN06/  202/  194
.E GNJT2 20190819 Z DH1636/UGIRG/DIN06/   19/   19
.E GNJT2 20190819 Z DH1636/TWIRG/DIN06/   88/   88
.E GTOT2 20190819 Z DH1636/TAIRG/DIN06/   89/   88
.E GTOT2 20190819 Z DH1636/PLIRG/DIN06/30.01/30.01
.E GTOT2 20190819 Z DH1636/USIRG/DIN06/   11/   13
.E GTOT2 20190819 Z DH1636/UDIRG/DIN06/  208/  220
.E GTOT2 20190819 Z DH1636/UGIRG/DIN06/   16/   17
.E GTOT2 20190819 Z DH1636/TWIRG/DIN06/   88/   88
.E GRRT2 20190819 Z DH1636/TAIRG/DIN06/   88/   88
.E GRRT2 20190819 Z DH1636/PLIRG/DIN06/30.00/30.00
.E GRRT2 20190819 Z DH1636/USIRG/DIN06/   12/   10
.E GRRT2 20190819 Z DH1636/UDIRG/DIN06/  231/  224
.E GRRT2 20190819 Z DH1636/UGIRG/DIN06/   15/   15
.E GRRT2 20190819 Z DH1636/TWIRG/DIN06/   88/   88
.E LUIT2 20190819 Z DH1642/PLIRP/DIN06/30.01/30.01
.E LUIT2 20190819 Z DH1642/USIRP/DIN06/   13/   12
.E LUIT2 20190819 Z DH1642/UDIRP/DIN06/  186/  181
.E LUIT2 20190819 Z DH1642/UGIRP/DIN06/   17/   17
.E LUIT2 20190819 Z DH1642/TWIRP/DIN06/   86/   86
.E FCGT2 20190819 Z DH1630/TAIRG/DIN06/   87/   88/   88
.E FCGT2 20190819 Z DH1630/PLIRG/DIN06/30.03/30.03/30.03
.E FCGT2 20190819 Z DH1630/USIRG/DIN06/   14/   13/   12
.E FCGT2 20190819 Z DH1630/UDIRG/DIN06/  187/  189/  190
.E FCGT2 20190819 Z DH1630/UGIRG/DIN06/   16/   16/   16
.E FCGT2 20190819 Z DH1630/TWIRG/DIN06/   85/   85/   85
.A FPST2 20190819 Z DH1642/TAIRG    86/UGIRG    16/PLIRG 30.01/UDIRG   177/USIRG    14/TWIRG    86/WCIRG -9999
.A SGNT2 20190819 Z DH1642/TAIRG    89/UGIRG    14/PLIRG 30.01/UDIRG   172/USIRG    11/TWIRG    87/WCIRG -9999
.E SDRT2 20190819 Z DH1636/TAIRG/DIN06/   88/   87
.E SDRT2 20190819 Z DH1636/PLIRG/DIN06/30.00/30.00
.E SDRT2 20190819 Z DH1636/USIRG/DIN06/   12/   12
.E SDRT2 20190819 Z DH1636/UDIRG/DIN06/  161/  160
.E SDRT2 20190819 Z DH1636/UGIRG/DIN06/   13/   14
.E SDRT2 20190819 Z DH1636/TWIRG/DIN06/   87/   87
.E EMAT2 20190819 Z DH1642/TAIRP/DIN06/   88/   88
.E EMAT2 20190819 Z DH1642/PLIRP/DIN06/30.00/30.00
.E EMAT2 20190819 Z DH1642/USIRP/DIN06/   12/   13
.E EMAT2 20190819 Z DH1642/UDIRP/DIN06/  166/  168
.E EMAT2 20190819 Z DH1642/UGIRP/DIN06/   16/   17
.E EMAT2 20190819 Z DH1642/TWIRP/DIN06/   88/   88
.E EMAT2 20190819 Z DH1636/TAIRG/DIN06/   87/   88
.E EMAT2 20190819 Z DH1636/PLIRG/DIN06/30.00/30.00
.E EMAT2 20190819 Z DH1636/USIRG/DIN06/   14/   12
.E EMAT2 20190819 Z DH1636/UDIRG/DIN06/  167/  165
.E EMAT2 20190819 Z DH1636/UGIRG/DIN06/   17/   15
.E EMAT2 20190819 Z DH1636/TWIRG/DIN06/   88/   88
.E VCAT2 20190819 Z DH1636/TAIRG/DIN06/   87/   88
.E VCAT2 20190819 Z DH1636/PLIRG/DIN06/29.99/29.99
.E VCAT2 20190819 Z DH1636/USIRG/DIN06/   15/   11
.E VCAT2 20190819 Z DH1636/UDIRG/DIN06/  157/  152
.E VCAT2 20190819 Z DH1636/UGIRG/DIN06/   17/   17
.E VCAT2 20190819 Z DH1636/TWIRG/DIN06/   88/   88
.E PCNT2 20190819 Z DH1636/TAIRG/DIN06/   86/   86
.E PCNT2 20190819 Z DH1636/PLIRG/DIN06/29.99/29.99
.E PCNT2 20190819 Z DH1636/USIRG/DIN06/   13/   14
.E PCNT2 20190819 Z DH1636/UDIRG/DIN06/  163/  170
.E PCNT2 20190819 Z DH1636/UGIRG/DIN06/   15/   16
.E PCNT2 20190819 Z DH1636/TWIRG/DIN06/   87/   87
.E MBET2 20190819 Z DH1636/TAIRG/DIN06/   87/   87
.E MBET2 20190819 Z DH1636/PLIRG/DIN06/29.97/29.97
.E MBET2 20190819 Z DH1636/USIRG/DIN06/   11/   11
.E MBET2 20190819 Z DH1636/UDIRG/DIN06/  197/  194
.E MBET2 20190819 Z DH1636/UGIRG/DIN06/   14/   14
.E AWRT2 20190819 Z DH1636/TAIRG/DIN06/   87/   87
.E AWRT2 20190819 Z DH1636/PLIRG/DIN06/30.00/30.00
.E AWRT2 20190819 Z DH1636/USIRG/DIN06/   13/   12
.E AWRT2 20190819 Z DH1636/UDIRG/DIN06/  186/  181
.E AWRT2 20190819 Z DH1636/UGIRG/DIN06/   16/   16
.E AWRT2 20190819 Z DH1636/TWIRG/DIN06/   86/   86
.E RCPT2 20190819 Z DH1636/TAIRG/DIN06/   87/   87
.E RCPT2 20190819 Z DH1636/PLIRG/DIN06/29.99/29.99
.E RTAT2 20190819 Z DH1636/TAIRG/DIN06/   87/   87
.E RTAT2 20190819 Z DH1636/PLIRG/DIN06/30.00/30.00
.E RTAT2 20190819 Z DH1636/USIRG/DIN06/    9/    9
.E RTAT2 20190819 Z DH1636/UDIRG/DIN06/  137/  147
.E RTAT2 20190819 Z DH1636/UGIRG/DIN06/   14/   15
.E RTAT2 20190819 Z DH1636/TWIRG/DIN06/   82/   82
.E ANPT2 20190819 Z DH1630/TAIRG/DIN06/   84/   84/   84
.E ANPT2 20190819 Z DH1630/PLIRG/DIN06/29.97/29.97/29.97
.E ANPT2 20190819 Z DH1630/USIRG/DIN06/    7/    7/    8
.E ANPT2 20190819 Z DH1630/UDIRG/DIN06/  123/  121/  122
.E ANPT2 20190819 Z DH1630/UGIRG/DIN06/    9/    9/    9
.E ANPT2 20190819 Z DH1630/TWIRG/DIN06/   83/   83/   83
.E NUET2 20190819 Z DH1642/PLIRP/DIN06/29.98/29.98
.E NUET2 20190819 Z DH1642/USIRP/DIN06/   13/   14
.E NUET2 20190819 Z DH1642/UDIRP/DIN06/  113/  134
.E NUET2 20190819 Z DH1642/UGIRP/DIN06/   18/   20
.E NUET2 20190819 Z DH1642/TWIRP/DIN06/   86/   86
.E NUET2 20190819 Z DH1636/PLIRG/DIN06/29.98/29.98
.E NUET2 20190819 Z DH1636/USIRG/DIN06/   13/   14
.E NUET2 20190819 Z DH1636/UDIRG/DIN06/  114/  135
.E NUET2 20190819 Z DH1636/UGIRG/DIN06/   18/   18
.E NUET2 20190819 Z DH1636/TWIRG/DIN06/   86/   86
.E TAQT2 20190819 Z DH1642/TAIRG/DIN06/   88/   87
.E TAQT2 20190819 Z DH1642/PLIRG/DIN06/29.96/29.96
.E TAQT2 20190819 Z DH1642/TWIRG/DIN06/   87/   87
.E PACT2 20190819 Z DH1636/TAIRG/DIN06/   87/   87
.E PACT2 20190819 Z DH1636/PLIRG/DIN06/29.99/29.99
.E PACT2 20190819 Z DH1636/USIRG/DIN06/   11/   12
.E PACT2 20190819 Z DH1636/UDIRG/DIN06/  124/  126
.E PACT2 20190819 Z DH1636/UGIRG/DIN06/   17/   15
.E PACT2 20190819 Z DH1636/TWIRG/DIN06/   85/   85
.E MQTT2 20190819 Z DH1636/TAIRG/DIN06/   89/   89
.E MQTT2 20190819 Z DH1636/PLIRG/DIN06/29.98/29.98
.E MQTT2 20190819 Z DH1636/USIRG/DIN06/    7/    7
.E MQTT2 20190819 Z DH1636/UDIRG/DIN06/   99/   99
.E MQTT2 20190819 Z DH1636/UGIRG/DIN06/    9/    8
.E MQTT2 20190819 Z DH1636/TWIRG/DIN06/   80/   80
.E IRDT2 20190819 Z DH1636/TAIRG/DIN06/   87/   87
.E IRDT2 20190819 Z DH1636/PLIRG/DIN06/30.00/30.00
.E IRDT2 20190819 Z DH1636/USIRG/DIN06/   13/   15
.E IRDT2 20190819 Z DH1636/UDIRG/DIN06/  135/  132
.E IRDT2 20190819 Z DH1636/UGIRG/DIN06/   16/   18
.E IRDT2 20190819 Z DH1636/TWIRG/DIN06/   87/   87
.E BABT2 20190819 Z DH1636/TAIRG/DIN06/   87/   87
.E BABT2 20190819 Z DH1636/PLIRG/DIN06/29.98/29.98
.E BABT2 20190819 Z DH1636/USIRG/DIN06/   11/   12
.E BABT2 20190819 Z DH1636/UDIRG/DIN06/  113/  109
.E BABT2 20190819 Z DH1636/UGIRG/DIN06/   17/   17
.E BABT2 20190819 Z DH1636/TWIRG/DIN06/   88/   88
.E RSJT2 20190819 Z DH1636/TAIRG/DIN06/   86/   87
.E RSJT2 20190819 Z DH1636/PLIRG/DIN06/29.96/29.96
.E RSJT2 20190819 Z DH1636/USIRG/DIN06/   19/   19
.E RSJT2 20190819 Z DH1636/UDIRG/DIN06/  151/  150
.E RSJT2 20190819 Z DH1636/UGIRG/DIN06/   21/   21
.E RSJT2 20190819 Z DH1636/TWIRG/DIN06/   87/   87
.E PMNT2 20190819 Z DH1636/TAIRG/DIN06/   87/   87
.E PMNT2 20190819 Z DH1636/PLIRG/DIN06/29.97/29.97
.E PMNT2 20190819 Z DH1636/TWIRG/DIN06/   88/   88
.E RLIT2 20190819 Z DH1636/TAIRG/DIN06/   88/   87
.E RLIT2 20190819 Z DH1636/PLIRG/DIN06/29.95/29.95
.E RLIT2 20190819 Z DH1636/USIRG/DIN06/   17/   17
.E RLIT2 20190819 Z DH1636/UDIRG/DIN06/  128/  127
.E RLIT2 20190819 Z DH1636/UGIRG/DIN06/   23/   21
.E RLIT2 20190819 Z DH1636/TWIRG/DIN06/   87/   87
.E PCGT2 20190819 Z DH1630/TAIRG/DIN06/   85/   84/   84
.E PCGT2 20190819 Z DH1630/PLIRG/DIN06/29.98/29.99/29.99
.E PCGT2 20190819 Z DH1630/USIRG/DIN06/   13/   10/    9
.E PCGT2 20190819 Z DH1630/UDIRG/DIN06/  142/  124/  132
.E PCGT2 20190819 Z DH1630/UGIRG/DIN06/   19/   16/   12
.E BZST2 20190819 Z DH1636/TAIRG/DIN06/   81/   82
.E BZST2 20190819 Z DH1636/PLIRG/DIN06/29.96/29.96
.E BZST2 20190819 Z DH1636/USIRG/DIN06/   10/   10
.E BZST2 20190819 Z DH1636/UDIRG/DIN06/  131/  138
.E BZST2 20190819 Z DH1636/UGIRG/DIN06/   11/   11
.E BZST2 20190819 Z DH1636/TWIRG/DIN06/   78/   78
.E PTIT2 20190819 Z DH1636/TAIRG/DIN06/   87/   88
.E PTIT2 20190819 Z DH1636/PLIRG/DIN06/29.98/29.98
.E PTIT2 20190819 Z DH1636/USIRG/DIN06/   19/   18
.E PTIT2 20190819 Z DH1636/UDIRG/DIN06/  148/  150
.E PTIT2 20190819 Z DH1636/UGIRG/DIN06/   23/   22
.E PTIT2 20190819 Z DH1636/TWIRG/DIN06/   83/   83
.E CHSV3 20190819 Z DH1636/TAIRG/DIN06/   89/   89
.E CHSV3 20190819 Z DH1636/PLIRG/DIN06/30.03/30.03
.E CHSV3 20190819 Z DH1636/USIRG/DIN06/    7/    4
.E CHSV3 20190819 Z DH1636/UDIRG/DIN06/  107/   82
.E CHSV3 20190819 Z DH1636/UGIRG/DIN06/   13/   12
.E CHSV3 20190819 Z DH1636/TWIRG/DIN06/   85/   85
.E LAMV3 20190819 Z DH1642/TAIRG/DIN06/   85/   86
.E LAMV3 20190819 Z DH1642/PLIRG/DIN06/30.09/30.09
.E LAMV3 20190819 Z DH1642/TWIRG/DIN06/   86/   86
.E LTBV3 20190819 Z DH1642/TAIRP/DIN06/   88/   88
.E LTBV3 20190819 Z DH1642/PLIRP/DIN06/30.05/30.05
.E LTBV3 20190819 Z DH1642/USIRP/DIN06/    8/    7
.E LTBV3 20190819 Z DH1642/UDIRP/DIN06/  124/  122
.E LTBV3 20190819 Z DH1642/UGIRP/DIN06/   13/   12
.E LTBV3 20190819 Z DH1642/TWIRP/DIN06/   85/   85
.E LTBV3 20190819 Z DH1636/TAIRG/DIN06/   89/   88
.E LTBV3 20190819 Z DH1636/PLIRG/DIN06/30.05/30.05
.E LTBV3 20190819 Z DH1636/USIRG/DIN06/    6/    7
.E LTBV3 20190819 Z DH1636/UDIRG/DIN06/  130/  128
.E LTBV3 20190819 Z DH1636/UGIRG/DIN06/   13/   14
.E LTBV3 20190819 Z DH1636/TWIRG/DIN06/   85/   85
.E CHAV3 20190819 Z DH1636/TAIRG/DIN06/   86/   86
.E CHAV3 20190819 Z DH1636/PLIRG/DIN06/30.04/30.04
.E CLBP4 20190819 Z DH1636/TAIRG/DIN06/   89/   89
.E CLBP4 20190819 Z DH1636/PLIRG/DIN06/30.04/30.04
.E CLBP4 20190819 Z DH1636/TWIRG/DIN06/   86/   86
.E ESPP4 20190819 Z DH1642/TAIRP/DIN06/   85/   85
.E ESPP4 20190819 Z DH1642/PLIRP/DIN06/30.04/30.05
.E ESPP4 20190819 Z DH1642/USIRP/DIN06/    6/    6
.E ESPP4 20190819 Z DH1642/UDIRP/DIN06/  110/  104
.E ESPP4 20190819 Z DH1642/UGIRP/DIN06/    8/    9
.E ESPP4 20190819 Z DH1642/TWIRP/DIN06/   85/   85
.E ESPP4 20190819 Z DH1636/TAIRG/DIN06/   85/   85
.E ESPP4 20190819 Z DH1636/PLIRG/DIN06/30.05/30.04
.E ESPP4 20190819 Z DH1636/USIRG/DIN06/    7/    7
.E ESPP4 20190819 Z DH1636/UDIRG/DIN06/  108/  112
.E ESPP4 20190819 Z DH1636/UGIRG/DIN06/    9/   10
.E ESPP4 20190819 Z DH1636/TWIRG/DIN06/   85/   85
.E YABP4 20190819 Z DH1642/TAIRG/DIN06/   89/   90
.E SJNP4 20190819 Z DH1642/TAIRG/DIN06/   80/   77
.E SJNP4 20190819 Z DH1642/PLIRG/DIN06/30.06/30.06
.E SJNP4 20190819 Z DH1642/TWIRG/DIN06/   85/   85
.E AROP4 20190819 Z DH1642/PLIRG/DIN06/30.12/30.14
.E AROP4 20190819 Z DH1642/USIRG/DIN06/   16/   16
.E AROP4 20190819 Z DH1642/UDIRG/DIN06/  286/  299
.E AROP4 20190819 Z DH1642/UGIRG/DIN06/   19/   19
.E AROP4 20190819 Z DH1642/TWIRG/DIN06/   85/   85
.E MGZP4 20190819 Z DH1636/TAIRG/DIN06/   78/   78
.E MGZP4 20190819 Z DH1636/PLIRG/DIN06/30.09/30.08
.E MGZP4 20190819 Z DH1636/TWIRG/DIN06/   85/   85
.E MISP4 20190819 Z DH1642/TAIRG/DIN06/   76/   77
.E MISP4 20190819 Z DH1642/PLIRG/DIN06/30.06/30.05
.E MISP4 20190819 Z DH1642/TWIRG/DIN06/   83/   83



USA.gov is the U.S. government's official web portal to all federal, state and local government web resources and services.